Time;durP1;ratioP1;P1;durP2;ratioP2;P2;SDS_P1;SDS_P2;PMS_P1;PMS_P2;Temp;Humidity;BMP_temperature;BMP_pressure;BME280_temperature;BME280_humidity;BME280_pressure;Samples;Min_cycle;Max_cycle;Signal;HPM_P1;HPM_P2
2021/06/02 00:00:16;;;;;;;0.98;0.88;;;16.10;99.90;;;;;;5024019;28;20140;-70
2021/06/02 00:02:49;;;;;;;0.60;0.60;;;16.00;99.90;;;;;;5024467;28;20037;-69
2021/06/02 00:05:16;;;;;;;0.85;0.63;;;16.00;99.90;;;;;;5024246;28;20030;-71
2021/06/02 00:07:43;;;;;;;1.38;0.70;;;15.90;99.90;;;;;;5022369;28;20045;-71
2021/06/02 00:10:11;;;;;;;1.60;0.90;;;15.80;99.90;;;;;;5024003;28;20030;-70
2021/06/02 00:12:37;;;;;;;1.35;0.73;;;15.80;99.90;;;;;;5024475;28;20026;-71
2021/06/02 00:15:05;;;;;;;3.17;1.10;;;15.80;99.90;;;;;;5024000;28;20375;-71
2021/06/02 00:17:31;;;;;;;3.42;1.23;;;15.70;99.90;;;;;;5024389;28;20030;-70
2021/06/02 00:19:57;;;;;;;2.55;1.15;;;15.70;99.90;;;;;;5021000;28;20029;-70
2021/06/02 00:22:23;;;;;;;2.30;0.95;;;15.60;99.90;;;;;;5026196;28;20033;-71
2021/06/02 00:24:49;;;;;;;1.60;1.15;;;15.60;99.90;;;;;;5014169;28;20018;-70
2021/06/02 00:27:18;;;;;;;1.30;0.85;;;15.50;99.90;;;;;;5013088;28;20038;-71
2021/06/02 00:29:45;;;;;;;2.20;0.98;;;15.40;99.90;;;;;;5013791;28;20470;-70
2021/06/02 00:32:12;;;;;;;1.75;0.75;;;15.40;99.90;;;;;;5011228;28;20086;-72
2021/06/02 00:34:38;;;;;;;1.80;0.73;;;15.50;99.90;;;;;;5012072;28;20471;-71
2021/06/02 00:37:06;;;;;;;1.77;0.85;;;15.40;99.90;;;;;;5012313;28;20029;-70
2021/06/02 00:39:32;;;;;;;1.33;1.00;;;15.30;99.90;;;;;;5013238;28;20041;-70
2021/06/02 00:41:59;;;;;;;1.58;0.90;;;15.20;99.90;;;;;;5012204;28;20048;-70
2021/06/02 00:44:25;;;;;;;2.55;0.95;;;15.20;99.90;;;;;;5021579;28;20502;-71
2021/06/02 00:46:51;;;;;;;2.42;1.42;;;15.20;99.90;;;;;;5013717;28;20042;-71
2021/06/02 00:49:23;;;;;;;1.30;0.75;;;15.10;99.90;;;;;;5010892;28;20046;-70
2021/06/02 00:51:50;;;;;;;1.85;1.10;;;15.00;99.90;;;;;;5014169;28;20018;-71
2021/06/02 00:54:17;;;;;;;4.65;1.67;;;15.00;99.90;;;;;;5016368;28;20026;-70
2021/06/02 00:57:11;;;;;;;4.13;1.85;;;15.00;99.90;;;;;;5015268;28;20542;-72
2021/06/02 00:59:38;;;;;;;2.00;1.08;;;14.90;99.90;;;;;;5013286;28;20038;-71
2021/06/02 01:02:06;;;;;;;3.72;1.13;;;14.80;99.90;;;;;;5015656;28;20025;-71
2021/06/02 01:04:31;;;;;;;2.25;0.95;;;14.80;99.90;;;;;;5015825;28;20054;-71
2021/06/02 01:06:57;;;;;;;3.42;1.52;;;14.80;99.90;;;;;;5013183;28;20057;-69
2021/06/02 01:09:24;;;;;;;3.47;1.38;;;14.70;99.90;;;;;;5022831;28;20018;-70
2021/06/02 01:11:51;;;;;;;3.78;1.60;;;14.70;99.90;;;;;;5014978;28;20029;-71
2021/06/02 01:14:20;;;;;;;4.45;1.52;;;14.60;99.90;;;;;;5012521;28;20398;-72
2021/06/02 01:16:47;;;;;;;3.13;1.70;;;14.60;99.90;;;;;;5016185;28;20431;-70
2021/06/02 01:19:17;;;;;;;3.72;1.85;;;14.60;99.90;;;;;;5013896;28;20034;-69
2021/06/02 01:22:03;;;;;;;3.70;1.88;;;14.60;99.90;;;;;;5013638;28;20101;-70
2021/06/02 01:24:31;;;;;;;4.30;1.70;;;14.50;99.90;;;;;;5012280;28;20041;-69
2021/06/02 01:27:00;;;;;;;4.50;2.25;;;14.50;99.90;;;;;;5015926;28;20669;-69
2021/06/02 01:29:27;;;;;;;3.13;1.42;;;14.30;99.90;;;;;;5015285;28;20129;-70
2021/06/02 01:32:02;;;;;;;3.25;1.90;;;14.40;99.90;;;;;;5012005;28;20062;-71
2021/06/02 01:35:17;;;;;;;3.58;1.88;;;14.40;99.90;;;;;;5024567;28;20040;-70
2021/06/02 01:37:46;;;;;;;5.97;2.28;;;14.30;99.90;;;;;;5024981;28;20033;-70
2021/06/02 01:40:29;;;;;;;4.85;1.83;;;14.20;99.90;;;;;;5024366;28;20046;-72
2021/06/02 01:43:13;;;;;;;5.50;2.58;;;14.30;99.90;;;;;;5024373;28;20034;-71
2021/06/02 01:46:05;;;;;;;6.45;2.78;;;14.20;99.90;;;;;;5024051;28;20374;-70
2021/06/02 01:49:05;;;;;;;7.22;2.42;;;14.20;99.90;;;;;;5024806;28;20041;-69
2021/06/02 01:52:02;;;;;;;6.10;2.58;;;14.10;99.90;;;;;;5004689;28;20460;-69
2021/06/02 01:54:54;;;;;;;3.97;2.53;;;14.10;99.90;;;;;;5023489;28;20881;-71
2021/06/02 01:57:47;;;;;;;5.78;2.47;;;14.10;99.90;;;;;;5024449;28;20034;-71
2021/06/02 02:00:59;;;;;;;4.50;1.95;;;14.00;99.90;;;;;;5024183;28;20025;-71
2021/06/02 02:04:05;;;;;;;3.70;2.38;;;14.00;99.90;;;;;;5023518;28;20022;-70
2021/06/02 02:06:45;;;;;;;5.07;2.70;;;13.90;99.90;;;;;;4975295;28;20729;-70
2021/06/02 02:09:49;;;;;;;3.55;2.30;;;13.80;99.90;;;;;;5024404;28;20033;-71
2021/06/02 02:12:30;;;;;;;5.15;2.40;;;13.80;99.90;;;;;;5024089;28;20056;-70
2021/06/02 02:14:55;;;;;;;5.65;2.47;;;13.80;99.90;;;;;;5023915;28;20133;-70
2021/06/02 02:17:52;;;;;;;6.93;2.85;;;13.60;99.90;;;;;;5023970;28;20052;-71
2021/06/02 02:20:23;;;;;;;6.07;2.45;;;13.70;99.90;;;;;;5024325;28;20033;-71
2021/06/02 02:23:22;;;;;;;6.22;2.75;;;13.70;99.90;;;;;;5024473;28;20028;-71
2021/06/02 02:26:08;;;;;;;4.85;2.40;;;13.60;99.90;;;;;;5018837;28;20038;-70
2021/06/02 02:28:59;;;;;;;4.97;2.20;;;13.60;99.90;;;;;;5024097;28;20048;-70
2021/06/02 02:31:58;;;;;;;7.07;2.33;;;13.50;99.90;;;;;;5024361;28;20037;-70
2021/06/02 02:34:39;;;;;;;5.20;2.70;;;13.50;99.90;;;;;;5023092;28;20033;-72
2021/06/02 02:37:13;;;;;;;4.53;2.35;;;13.40;99.90;;;;;;5025517;28;20040;-71
2021/06/02 02:40:11;;;;;;;6.15;2.50;;;13.40;99.90;;;;;;5025396;28;20046;-70
2021/06/02 02:42:55;;;;;;;6.53;2.50;;;13.40;99.90;;;;;;4990055;28;20094;-70
2021/06/02 02:45:56;;;;;;;5.47;2.60;;;13.30;99.90;;;;;;5025653;28;20100;-70
2021/06/02 02:48:37;;;;;;;5.90;2.92;;;13.20;99.90;;;;;;5043614;28;20120;-71
2021/06/02 02:51:09;;;;;;;9.18;2.70;;;13.20;99.90;;;;;;5044954;28;20049;-71
2021/06/02 02:53:47;;;;;;;5.50;2.42;;;13.10;99.90;;;;;;5044773;28;20104;-71
2021/06/02 02:56:22;;;;;;;4.97;2.60;;;13.10;99.90;;;;;;5043491;28;20060;-70
2021/06/02 02:59:03;;;;;;;10.07;3.15;;;13.10;99.90;;;;;;5045005;28;20065;-70
2021/06/02 03:01:41;;;;;;;7.20;3.00;;;13.10;99.90;;;;;;5038869;28;20034;-70
2021/06/02 03:04:15;;;;;;;6.20;2.65;;;13.00;99.90;;;;;;5025119;28;20022;-71
2021/06/02 03:06:44;;;;;;;10.23;3.03;;;13.00;99.90;;;;;;5025285;28;20049;-70
2021/06/02 03:09:28;;;;;;;6.07;2.72;;;12.90;99.90;;;;;;5024647;28;20030;-71
2021/06/02 03:12:13;;;;;;;3.10;2.13;;;12.90;99.90;;;;;;5024918;28;20084;-71
2021/06/02 03:14:50;;;;;;;5.40;2.90;;;12.90;99.90;;;;;;5024741;28;20386;-70
2021/06/02 03:17:27;;;;;;;6.43;3.00;;;12.90;99.90;;;;;;5024420;28;20029;-70
2021/06/02 03:19:58;;;;;;;4.10;2.38;;;12.80;99.90;;;;;;5024132;28;20018;-70
2021/06/02 03:22:39;;;;;;;7.25;2.17;;;12.80;99.90;;;;;;5024041;28;20057;-69
2021/06/02 03:25:23;;;;;;;4.07;2.25;;;12.80;99.90;;;;;;5022471;28;20029;-70
2021/06/02 03:28:28;;;;;;;5.55;2.90;;;12.80;99.90;;;;;;5024653;28;20046;-70
2021/06/02 03:31:10;;;;;;;3.03;2.00;;;12.80;99.90;;;;;;5006259;28;20048;-70
2021/06/02 03:34:13;;;;;;;6.30;2.72;;;12.80;99.90;;;;;;5044719;28;20021;-70
2021/06/02 03:37:06;;;;;;;7.32;1.85;;;12.80;99.90;;;;;;5044242;28;20033;-71
2021/06/02 03:40:00;;;;;;;4.45;2.00;;;12.70;99.90;;;;;;5043759;28;20087;-71
2021/06/02 03:42:57;;;;;;;3.10;2.10;;;12.70;99.90;;;;;;5043988;28;20358;-71
2021/06/02 03:45:41;;;;;;;3.83;2.15;;;12.70;99.90;;;;;;5043093;28;20038;-70
2021/06/02 03:48:31;;;;;;;5.95;2.17;;;12.70;99.90;;;;;;5044399;28;20489;-69
2021/06/02 03:51:22;;;;;;;6.07;1.70;;;12.70;99.90;;;;;;5044401;28;20039;-69
2021/06/02 03:54:02;;;;;;;4.05;2.30;;;12.70;99.90;;;;;;5044324;28;20036;-71
2021/06/02 03:56:57;;;;;;;2.92;1.63;;;12.70;99.90;;;;;;5042910;28;20087;-70
2021/06/02 03:59:34;;;;;;;3.88;1.77;;;12.70;99.90;;;;;;5043691;28;20029;-69
2021/06/02 04:02:07;;;;;;;3.33;1.83;;;12.70;99.90;;;;;;5044210;28;20604;-71
2021/06/02 04:04:47;;;;;;;3.53;1.65;;;12.70;99.90;;;;;;5043619;28;20036;-70
2021/06/02 04:07:22;;;;;;;3.13;1.45;;;12.70;99.90;;;;;;5043833;28;20131;-70
2021/06/02 04:10:06;;;;;;;3.33;1.52;;;12.70;99.90;;;;;;5044042;28;20025;-71
2021/06/02 04:12:44;;;;;;;3.97;2.15;;;12.70;99.90;;;;;;5043612;28;20048;-70
2021/06/02 04:15:13;;;;;;;4.15;1.40;;;12.70;99.90;;;;;;5043241;28;20037;-72
2021/06/02 04:17:41;;;;;;;2.05;1.13;;;12.70;99.90;;;;;;5043758;28;20017;-72
2021/06/02 04:20:07;;;;;;;2.88;1.35;;;12.80;99.90;;;;;;5044051;28;20057;-70
2021/06/02 04:22:35;;;;;;;4.00;1.80;;;12.80;99.90;;;;;;5044018;28;20089;-70
2021/06/02 04:25:02;;;;;;;2.35;1.17;;;12.80;99.90;;;;;;5042286;28;20033;-70
2021/06/02 04:27:29;;;;;;;4.47;1.05;;;12.80;99.90;;;;;;5046959;28;20049;-69
2021/06/02 04:30:03;;;;;;;2.30;1.10;;;12.90;99.90;;;;;;5046939;28;20049;-69
2021/06/02 04:32:39;;;;;;;3.15;1.30;;;12.90;99.90;;;;;;5047735;28;20025;-69
2021/06/02 04:35:10;;;;;;;2.92;1.15;;;13.00;99.90;;;;;;5047303;28;20089;-71
2021/06/02 04:37:36;;;;;;;2.22;1.00;;;13.00;99.90;;;;;;5047881;28;20052;-70
2021/06/02 04:40:05;;;;;;;4.53;1.52;;;13.10;99.90;;;;;;5045738;28;20438;-71
2021/06/02 04:42:34;;;;;;;1.40;1.05;;;13.10;99.90;;;;;;5046676;28;20030;-71
2021/06/02 04:45:01;;;;;;;1.60;1.02;;;13.20;99.90;;;;;;5047655;28;20034;-69
2021/06/02 04:47:27;;;;;;;7.82;1.52;;;13.30;99.90;;;;;;5047100;28;20045;-69
2021/06/02 04:50:05;;;;;;;0.50;0.50;;;13.30;99.90;;;;;;5046946;28;20132;-69
2021/06/02 04:53:16;;;;;;;6.10;0.90;;;13.40;99.90;;;;;;5046706;28;20086;-68
2021/06/02 04:56:10;;;;;;;1.10;0.85;;;13.40;99.90;;;;;;5023423;28;20068;-71
2021/06/02 04:58:57;;;;;;;0.82;0.40;;;13.40;99.90;;;;;;5047185;28;20040;-69
2021/06/02 05:02:00;;;;;;;1.80;0.77;;;13.50;99.90;;;;;;5047083;28;20398;-70
2021/06/02 05:04:47;;;;;;;12.27;0.93;;;13.50;99.90;;;;;;5046089;28;20036;-70
2021/06/02 05:07:42;;;;;;;0.98;0.68;;;13.50;99.90;;;;;;5047207;28;20051;-70
2021/06/02 05:10:13;;;;;;;;;;;13.50;99.90;;;;;;5047109;28;20034;-70
2021/06/02 05:13:12;;;;;;;0.70;0.60;;;13.60;99.90;;;;;;5047069;28;19912;-70
2021/06/02 05:15:56;;;;;;;0.88;0.60;;;13.60;99.90;;;;;;5046876;28;20034;-71
2021/06/02 05:19:03;;;;;;;0.55;0.55;;;13.60;99.90;;;;;;5045474;28;20477;-70
2021/06/02 05:22:05;;;;;;;0.95;0.40;;;13.70;99.90;;;;;;5047150;28;20029;-70
2021/06/02 05:25:13;;;;;;;2.17;0.65;;;13.70;99.90;;;;;;5045149;28;20033;-69
2021/06/02 05:28:24;;;;;;;7.80;0.63;;;13.80;99.90;;;;;;5045821;28;20037;-72
2021/06/02 05:31:23;;;;;;;0.93;0.47;;;13.90;99.90;;;;;;5046389;28;20025;-69
2021/06/02 05:34:20;;;;;;;0.98;0.55;;;13.90;99.90;;;;;;5045020;28;20057;-69
2021/06/02 05:37:01;;;;;;;0.90;0.60;;;14.00;99.90;;;;;;5046224;28;20026;-71
2021/06/02 05:39:54;;;;;;;2.55;0.80;;;14.10;99.90;;;;;;5042540;28;20057;-69
2021/06/02 05:42:22;;;;;;;0.75;0.55;;;14.10;99.90;;;;;;5027729;28;20040;-69
2021/06/02 05:45:49;;;;;;;2.65;0.98;;;14.20;99.90;;;;;;5038040;28;20036;-69
2021/06/02 05:48:53;;;;;;;11.82;0.93;;;14.20;99.90;;;;;;4984423;28;20147;-70
2021/06/02 05:51:55;;;;;;;1.15;0.60;;;14.30;99.90;;;;;;4984407;28;20117;-70
2021/06/02 05:55:03;;;;;;;1.52;0.52;;;14.40;99.90;;;;;;5043697;28;20045;-69
2021/06/02 05:57:50;;;;;;;1.70;0.70;;;14.40;99.90;;;;;;5006489;28;20034;-70
2021/06/02 06:00:53;;;;;;;0.47;0.35;;;14.50;99.90;;;;;;5006381;28;20459;-68
2021/06/02 06:03:33;;;;;;;2.25;0.95;;;14.50;99.90;;;;;;5006397;28;20031;-69
2021/06/02 06:06:15;;;;;;;1.02;0.63;;;14.60;99.90;;;;;;5005718;28;20023;-70
2021/06/02 06:09:19;;;;;;;0.85;0.65;;;14.50;99.90;;;;;;5005444;28;20073;-68
2021/06/02 06:12:06;;;;;;;1.08;0.60;;;14.60;99.90;;;;;;5014589;28;20037;-71
2021/06/02 06:14:43;;;;;;;0.80;0.50;;;14.70;99.90;;;;;;5036094;28;20037;-70
2021/06/02 06:17:35;;;;;;;0.90;0.52;;;14.70;99.90;;;;;;5027081;28;20029;-69
2021/06/02 06:20:08;;;;;;;1.48;0.60;;;14.70;99.90;;;;;;5038888;28;20033;-68
2021/06/02 06:22:51;;;;;;;2.85;1.08;;;14.80;99.90;;;;;;5043897;28;20092;-70
2021/06/02 06:25:26;;;;;;;0.95;0.52;;;14.80;99.90;;;;;;5044142;28;20098;-69
2021/06/02 06:28:15;;;;;;;0.60;0.40;;;14.90;99.90;;;;;;5043031;28;20123;-72
2021/06/02 06:30:43;;;;;;;0.80;0.45;;;14.90;99.90;;;;;;5044089;28;20029;-71
2021/06/02 06:33:17;;;;;;;2.40;0.63;;;14.90;99.90;;;;;;5043759;28;20036;-70
2021/06/02 06:35:45;;;;;;;0.90;0.70;;;15.00;99.90;;;;;;5043729;28;20029;-68
2021/06/02 06:38:21;;;;;;;1.85;0.75;;;15.10;99.90;;;;;;5043921;28;20409;-70
2021/06/02 06:40:50;;;;;;;2.20;0.57;;;15.20;99.90;;;;;;5043190;28;20079;-69
2021/06/02 06:43:18;;;;;;;9.32;0.80;;;15.20;99.90;;;;;;5043703;28;20025;-70
2021/06/02 06:45:45;;;;;;;1.10;0.70;;;15.30;99.90;;;;;;5043208;28;20025;-70
2021/06/02 06:48:18;;;;;;;1.95;0.68;;;15.40;99.90;;;;;;5042504;28;20486;-70
2021/06/02 06:50:50;;;;;;;2.05;0.60;;;15.50;99.90;;;;;;5043669;28;20033;-72
2021/06/02 06:53:17;;;;;;;5.53;0.98;;;15.50;99.90;;;;;;5042981;28;20029;-72
2021/06/02 06:55:45;;;;;;;1.88;0.63;;;15.60;99.90;;;;;;5043535;28;20018;-71
2021/06/02 06:58:11;;;;;;;1.15;0.73;;;15.70;99.90;;;;;;5043796;28;20037;-69
2021/06/02 07:00:38;;;;;;;0.80;0.50;;;15.70;99.90;;;;;;5043346;28;20030;-70
2021/06/02 07:03:06;;;;;;;1.00;0.40;;;15.80;99.90;;;;;;5043357;28;20033;-70
2021/06/02 07:05:33;;;;;;;1.23;0.85;;;15.80;99.90;;;;;;5043391;28;20048;-70
2021/06/02 07:07:59;;;;;;;1.85;1.02;;;15.90;99.90;;;;;;5042868;28;20205;-71
2021/06/02 07:10:26;;;;;;;1.23;0.70;;;15.90;99.90;;;;;;5043226;28;20017;-71
2021/06/02 07:12:52;;;;;;;5.15;0.95;;;16.00;99.90;;;;;;5043320;28;20067;-70
2021/06/02 07:15:20;;;;;;;2.88;0.93;;;16.10;99.90;;;;;;5042627;28;20041;-71
2021/06/02 07:17:47;;;;;;;0.85;0.45;;;16.10;99.90;;;;;;5043261;28;20049;-72
2021/06/02 07:20:21;;;;;;;0.65;0.45;;;16.20;99.90;;;;;;5042718;28;20025;-71
2021/06/02 07:22:48;;;;;;;;;;;16.30;99.90;;;;;;5043488;28;20040;-72
2021/06/02 07:25:15;;;;;;;3.50;1.42;;;16.40;99.90;;;;;;5043053;28;19933;-72
2021/06/02 07:27:43;;;;;;;1.33;0.88;;;16.50;99.90;;;;;;5041651;28;20113;-70
2021/06/02 07:30:09;;;;;;;1.17;0.65;;;16.50;99.90;;;;;;5042966;28;20022;-71
2021/06/02 07:32:34;;;;;;;1.27;0.82;;;16.60;99.90;;;;;;5042802;28;20025;-70
2021/06/02 07:35:00;;;;;;;0.73;0.55;;;16.70;99.90;;;;;;5042335;28;20025;-70
2021/06/02 07:37:26;;;;;;;1.27;0.95;;;16.80;99.90;;;;;;5042491;28;20056;-71
2021/06/02 07:39:52;;;;;;;1.75;0.65;;;16.90;99.90;;;;;;5041857;28;20049;-69
2021/06/02 07:42:18;;;;;;;1.15;0.70;;;17.00;99.90;;;;;;5042509;28;20044;-71
2021/06/02 07:44:44;;;;;;;0.88;0.68;;;17.00;99.90;;;;;;5042823;28;20025;-73
2021/06/02 07:47:09;;;;;;;0.80;0.70;;;17.10;99.90;;;;;;5042744;28;20044;-70
2021/06/02 07:49:35;;;;;;;1.38;0.80;;;17.20;99.90;;;;;;5037148;28;20365;-71
2021/06/02 07:52:01;;;;;;;2.08;1.05;;;17.30;99.90;;;;;;5029261;28;20492;-70
2021/06/02 07:54:27;;;;;;;2.22;0.73;;;17.40;99.90;;;;;;5034809;28;20052;-71
2021/06/02 07:56:54;;;;;;;0.50;0.45;;;17.50;99.90;;;;;;5041978;28;20061;-71
2021/06/02 07:59:20;;;;;;;1.27;0.73;;;17.60;99.90;;;;;;5028073;28;20021;-70
2021/06/02 08:01:47;;;;;;;1.88;0.70;;;17.70;99.90;;;;;;5023373;28;20029;-69
2021/06/02 08:04:13;;;;;;;3.92;1.48;;;17.80;99.90;;;;;;5025631;28;20022;-70
2021/06/02 08:06:39;;;;;;;2.65;0.93;;;17.90;99.90;;;;;;5025374;28;20117;-71
2021/06/02 08:09:06;;;;;;;1.05;0.82;;;17.90;99.90;;;;;;5026081;28;20414;-71
2021/06/02 08:11:33;;;;;;;1.30;0.80;;;18.00;99.90;;;;;;5026325;28;20049;-69
2021/06/02 08:13:59;;;;;;;17.48;1.67;;;18.10;99.90;;;;;;5026458;28;20133;-72
2021/06/02 08:16:25;;;;;;;5.35;1.00;;;18.20;99.90;;;;;;5026538;28;20109;-68
2021/06/02 08:18:52;;;;;;;1.77;0.90;;;18.20;99.90;;;;;;5026608;28;20053;-70
2021/06/02 08:21:18;;;;;;;0.95;0.60;;;18.30;99.90;;;;;;5026510;28;20017;-70
2021/06/02 08:23:43;;;;;;;3.08;0.90;;;18.40;99.90;;;;;;5025984;28;20041;-71
2021/06/02 08:26:09;;;;;;;1.58;0.93;;;18.50;99.90;;;;;;5025993;28;20175;-70
2021/06/02 08:28:35;;;;;;;3.42;1.27;;;18.60;99.90;;;;;;5023794;28;20034;-72
2021/06/02 08:31:01;;;;;;;3.22;1.02;;;18.50;99.90;;;;;;5025356;28;20026;-71
2021/06/02 08:33:26;;;;;;;6.90;1.38;;;18.70;99.90;;;;;;5025487;28;20044;-70
2021/06/02 08:35:52;;;;;;;3.00;0.70;;;18.80;99.90;;;;;;5040427;28;20064;-68
2021/06/02 08:38:18;;;;;;;1.92;0.98;;;18.90;99.90;;;;;;5045060;28;20057;-69
2021/06/02 08:40:44;;;;;;;4.93;1.05;;;19.00;99.90;;;;;;5031835;28;20033;-72
2021/06/02 08:43:11;;;;;;;1.80;0.93;;;19.10;99.90;;;;;;5025758;28;20026;-70
2021/06/02 08:45:38;;;;;;;1.80;0.88;;;19.20;99.90;;;;;;5025638;28;20067;-70
2021/06/02 08:48:05;;;;;;;2.33;1.27;;;19.20;99.90;;;;;;5024754;28;20068;-68
2021/06/02 08:50:31;;;;;;;2.10;0.93;;;19.30;99.90;;;;;;5025681;28;20040;-70
2021/06/02 08:53:00;;;;;;;1.13;0.63;;;19.40;99.90;;;;;;5028947;28;20100;-71
2021/06/02 08:55:26;;;;;;;0.70;0.50;;;19.50;99.90;;;;;;5043763;28;20034;-70
2021/06/02 08:57:52;;;;;;;2.88;1.40;;;19.60;99.90;;;;;;5029604;28;20028;-71
2021/06/02 09:00:21;;;;;;;2.05;1.10;;;19.70;99.90;;;;;;5036253;28;20033;-71
2021/06/02 09:02:53;;;;;;;1.98;0.82;;;19.90;99.90;;;;;;5032343;28;20052;-71
2021/06/02 09:05:20;;;;;;;3.30;1.13;;;20.10;99.90;;;;;;5025982;28;20026;-72
2021/06/02 09:07:50;;;;;;;2.83;1.23;;;20.20;99.90;;;;;;5044102;28;20374;-73
2021/06/02 09:10:17;;;;;;;1.08;0.85;;;20.20;99.90;;;;;;5037883;28;20030;-72
2021/06/02 09:12:44;;;;;;;1.83;1.00;;;20.20;99.90;;;;;;5044988;28;20796;-71
2021/06/02 09:15:10;;;;;;;1.25;0.80;;;20.00;99.90;;;;;;5040838;28;20040;-71
2021/06/02 09:17:56;;;;;;;4.32;1.30;;;20.10;99.90;;;;;;5024883;28;20030;-72
2021/06/02 09:20:43;;;;;;;3.45;0.95;;;20.30;99.90;;;;;;5025105;28;20030;-70
2021/06/02 09:23:37;;;;;;;1.67;0.77;;;20.50;99.90;;;;;;5020437;28;20025;-73
2021/06/02 09:26:30;;;;;;;1.48;0.90;;;20.60;99.90;;;;;;5015226;28;20088;-72
2021/06/02 09:29:13;;;;;;;1.50;1.10;;;20.70;99.90;;;;;;5014942;28;20038;-69
2021/06/02 09:31:51;;;;;;;3.03;1.10;;;20.80;99.90;;;;;;5014892;28;20053;-71
2021/06/02 09:34:27;;;;;;;1.20;0.65;;;20.90;99.90;;;;;;5013782;28;20014;-69
2021/06/02 09:37:08;;;;;;;2.17;0.90;;;20.90;99.90;;;;;;5015368;28;20018;-71
2021/06/02 09:39:44;;;;;;;1.88;1.05;;;21.10;99.90;;;;;;5012861;28;20114;-76
2021/06/02 09:42:28;;;;;;;0.93;0.75;;;21.20;99.90;;;;;;5014690;28;20078;-71
2021/06/02 09:45:05;;;;;;;1.20;0.70;;;21.20;99.90;;;;;;5038994;28;20033;-68
2021/06/02 09:47:50;;;;;;;1.50;0.70;;;21.40;99.90;;;;;;5023348;28;20085;-71
2021/06/02 09:50:39;;;;;;;2.72;0.95;;;21.50;99.90;;;;;;5024109;28;20025;-70
2021/06/02 09:53:09;;;;;;;2.72;1.08;;;21.50;99.90;;;;;;5025042;28;20051;-69
2021/06/02 09:55:42;;;;;;;15.48;1.13;;;21.50;99.90;;;;;;5024917;28;20018;-69
2021/06/02 09:58:12;;;;;;;2.05;1.08;;;21.60;99.90;;;;;;5023576;28;20022;-70
2021/06/02 10:00:41;;;;;;;1.83;0.80;;;21.70;99.90;;;;;;5024363;28;20044;-72
2021/06/02 10:03:19;;;;;;;2.10;0.98;;;21.80;99.90;;;;;;5024910;28;20046;-71
2021/06/02 10:05:50;;;;;;;17.85;1.05;;;21.80;99.90;;;;;;5029920;28;20469;-69
2021/06/02 10:08:27;;;;;;;7.63;0.90;;;21.90;99.90;;;;;;5027705;28;20056;-70
2021/06/02 10:10:54;;;;;;;2.33;1.23;;;22.00;99.90;;;;;;5043814;28;20047;-73
2021/06/02 10:13:26;;;;;;;1.15;0.60;;;22.10;99.90;;;;;;5043075;28;20393;-71
2021/06/02 10:15:53;;;;;;;1.38;0.82;;;22.10;99.90;;;;;;5042576;28;20033;-70
2021/06/02 10:18:29;;;;;;;1.33;0.90;;;22.30;99.90;;;;;;5043876;28;20049;-70
2021/06/02 10:21:03;;;;;;;1.90;0.95;;;22.40;99.90;;;;;;5042020;28;20109;-69
2021/06/02 10:23:31;;;;;;;2.13;0.82;;;22.60;99.90;;;;;;5043051;28;20021;-68
2021/06/02 10:25:58;;;;;;;2.30;0.95;;;22.70;99.90;;;;;;5043935;28;20461;-70
2021/06/02 10:28:25;;;;;;;1.00;0.65;;;23.00;99.90;;;;;;5043085;28;20309;-70
2021/06/02 10:30:51;;;;;;;1.02;0.63;;;23.10;99.90;;;;;;5043814;28;20029;-71
2021/06/02 10:33:17;;;;;;;2.10;1.23;;;23.20;99.90;;;;;;5043486;28;20021;-69
2021/06/02 10:35:42;;;;;;;6.05;1.08;;;23.20;99.90;;;;;;5043316;28;20076;-70
2021/06/02 10:38:09;;;;;;;1.45;0.65;;;23.10;99.90;;;;;;5042593;28;20045;-71
2021/06/02 10:40:39;;;;;;;3.33;0.98;;;23.20;99.90;;;;;;5042593;28;20057;-70
2021/06/02 10:43:17;;;;;;;5.57;1.58;;;23.30;99.90;;;;;;5043850;28;20021;-70
2021/06/02 10:46:00;;;;;;;2.33;1.35;;;23.60;99.90;;;;;;5041952;28;20044;-72
2021/06/02 10:48:48;;;;;;;1.88;1.10;;;23.60;99.90;;;;;;5029598;28;20091;-71
2021/06/02 10:51:44;;;;;;;4.53;0.93;;;23.70;99.90;;;;;;5004291;28;20045;-73
2021/06/02 10:54:19;;;;;;;1.63;1.20;;;23.90;99.90;;;;;;4995557;28;20042;-69
2021/06/02 10:56:56;;;;;;;1.73;1.30;;;24.00;99.90;;;;;;5003598;28;20041;-71
2021/06/02 10:59:36;;;;;;;2.42;1.42;;;24.00;99.90;;;;;;5003883;28;20042;-69
2021/06/02 11:02:09;;;;;;;2.83;1.15;;;24.00;99.90;;;;;;5003228;28;20022;-71
2021/06/02 11:04:37;;;;;;;1.85;1.10;;;23.90;99.90;;;;;;5003935;28;20038;-69
2021/06/02 11:07:17;;;;;;;2.85;1.40;;;23.80;99.90;;;;;;5003497;28;20043;-72
2021/06/02 11:10:02;;;;;;;4.28;1.80;;;23.80;99.90;;;;;;5001718;28;20498;-75
2021/06/02 11:12:49;;;;;;;2.33;1.30;;;23.90;99.90;;;;;;5003617;28;20073;-70
2021/06/02 11:15:34;;;;;;;2.50;1.30;;;24.10;99.90;;;;;;5002924;28;20030;-70
2021/06/02 11:18:14;;;;;;;2.00;1.08;;;24.30;99.90;;;;;;5003316;28;20572;-70
2021/06/02 11:20:45;;;;;;;3.08;1.48;;;24.50;99.90;;;;;;5004285;28;20030;-69
2021/06/02 11:23:19;;;;;;;2.17;1.50;;;24.90;99.90;;;;;;5004443;28;20033;-71
2021/06/02 11:25:46;;;;;;;2.53;1.25;;;25.20;99.90;;;;;;5003682;28;20022;-71
2021/06/02 11:28:43;;;;;;;2.88;1.35;;;25.50;99.90;;;;;;5003752;28;20089;-71
2021/06/02 11:31:27;;;;;;;3.80;1.27;;;25.80;99.90;;;;;;5003025;28;20046;-72
2021/06/02 11:34:29;;;;;;;1.83;1.23;;;26.00;99.90;;;;;;5003570;28;20065;-70
2021/06/02 11:37:03;;;;;;;1.85;1.13;;;26.30;99.90;;;;;;5003577;28;20030;-70
2021/06/02 11:39:29;;;;;;;2.15;1.20;;;26.40;99.90;;;;;;5002620;28;20069;-70
2021/06/02 11:41:58;;;;;;;2.72;1.48;;;26.40;99.90;;;;;;5034422;28;20041;-69
2021/06/02 11:44:29;;;;;;;3.30;1.50;;;26.30;99.90;;;;;;5035750;28;20393;-71
2021/06/02 11:46:55;;;;;;;7.78;1.35;;;26.20;99.90;;;;;;5042344;28;20044;-70
2021/06/02 11:49:29;;;;;;;2.08;1.63;;;26.10;99.90;;;;;;5040749;28;20028;-69
2021/06/02 11:51:56;;;;;;;3.78;1.52;;;26.10;99.90;;;;;;5042016;28;20029;-71
2021/06/02 11:54:23;;;;;;;2.65;1.25;;;26.10;99.90;;;;;;5042487;28;20037;-70
2021/06/02 11:56:48;;;;;;;2.17;1.42;;;26.30;99.90;;;;;;5042361;28;20092;-70
2021/06/02 11:59:14;;;;;;;2.13;1.27;;;26.60;99.90;;;;;;5042392;28;20033;-68
2021/06/02 12:01:39;;;;;;;4.70;1.50;;;27.00;99.90;;;;;;5042580;28;20030;-69
2021/06/02 12:04:05;;;;;;;2.03;1.42;;;27.30;99.90;;;;;;5041776;28;20025;-69
2021/06/02 12:06:35;;;;;;;2.38;1.23;;;27.50;99.90;;;;;;5041930;28;21105;-68
2021/06/02 12:09:08;;;;;;;6.97;1.48;;;27.90;99.90;;;;;;5042190;28;20040;-70
2021/06/02 12:11:35;;;;;;;;;;;28.30;99.90;;;;;;5042388;28;20120;-70
2021/06/02 12:14:01;;;;;;;1.63;1.05;;;28.50;99.90;;;;;;5042040;28;19971;-68
2021/06/02 12:16:27;;;;;;;2.63;1.33;;;28.80;99.90;;;;;;5042830;28;20049;-68
2021/06/02 12:18:58;;;;;;;2.80;1.10;;;28.90;99.90;;;;;;5041938;28;20091;-69
2021/06/02 12:21:29;;;;;;;2.45;1.38;;;29.00;99.90;;;;;;5041905;28;20083;-71
2021/06/02 12:24:06;;;;;;;3.70;1.55;;;29.10;99.90;;;;;;5042478;28;20560;-70
2021/06/02 12:26:39;;;;;;;1.33;0.95;;;29.30;99.00;;;;;;5042156;28;20437;-75
2021/06/02 12:29:08;;;;;;;9.07;1.70;;;29.30;98.40;;;;;;5042017;28;20045;-73
2021/06/02 12:31:47;;;;;;;2.03;1.10;;;29.20;98.70;;;;;;5042297;28;20022;-69
2021/06/02 12:34:18;;;;;;;2.08;1.30;;;29.00;98.50;;;;;;5042345;28;20029;-72
2021/06/02 12:37:03;;;;;;;2.88;1.50;;;28.90;99.20;;;;;;5042557;28;20036;-69
2021/06/02 12:39:34;;;;;;;3.20;1.58;;;28.60;97.00;;;;;;5039972;28;20099;-71
2021/06/02 12:42:03;;;;;;;2.17;1.50;;;28.30;98.60;;;;;;5040552;28;20029;-71
2021/06/02 12:44:37;;;;;;;2.25;1.30;;;28.30;98.30;;;;;;5042195;28;20057;-71
2021/06/02 12:47:11;;;;;;;3.38;1.83;;;28.30;97.50;;;;;;5042490;28;20132;-71
2021/06/02 12:49:47;;;;;;;3.72;1.45;;;28.30;96.20;;;;;;5045939;28;20029;-70
2021/06/02 12:52:14;;;;;;;2.38;1.63;;;28.10;97.10;;;;;;5045740;28;20041;-71
2021/06/02 12:54:41;;;;;;;3.60;1.88;;;27.90;97.20;;;;;;5045096;28;20456;-74
2021/06/02 12:57:09;;;;;;;2.95;1.58;;;28.00;97.80;;;;;;5045847;28;20039;-68
2021/06/02 12:59:36;;;;;;;6.30;1.40;;;28.10;97.00;;;;;;5045323;28;20029;-67
2021/06/02 13:02:09;;;;;;;2.53;1.45;;;28.20;97.40;;;;;;5045569;28;20021;-70
2021/06/02 13:04:36;;;;;;;3.47;1.67;;;28.20;97.70;;;;;;5045622;28;20052;-72
2021/06/02 13:07:02;;;;;;;3.63;1.92;;;28.30;97.20;;;;;;5045521;28;20090;-73
2021/06/02 13:09:28;;;;;;;3.05;1.55;;;28.20;96.80;;;;;;5044578;28;20037;-69
2021/06/02 13:11:55;;;;;;;3.25;1.50;;;28.40;98.30;;;;;;5045566;28;20036;-70
2021/06/02 13:14:34;;;;;;;4.65;1.75;;;28.60;97.60;;;;;;5045209;28;20048;-70
2021/06/02 13:17:00;;;;;;;2.75;1.25;;;28.80;96.90;;;;;;5043846;28;20447;-72
2021/06/02 13:19:41;;;;;;;3.67;1.77;;;28.90;97.70;;;;;;5044925;28;20033;-70
2021/06/02 13:22:18;;;;;;;1.58;1.23;;;29.10;95.90;;;;;;5045481;28;20045;-76
2021/06/02 13:24:44;;;;;;;2.05;1.48;;;29.10;95.90;;;;;;5045302;28;20554;-70
2021/06/02 13:27:20;;;;;;;1.55;1.20;;;29.20;97.40;;;;;;5032952;28;20062;-73
2021/06/02 13:30:11;;;;;;;2.67;1.58;;;29.30;95.20;;;;;;5005743;28;20073;-70
2021/06/02 13:32:37;;;;;;;1.98;1.10;;;29.10;94.40;;;;;;5020027;28;20041;-73